Terminal Aerodrome Forecast
Issued by NWS Boston, MA

Current Version | Previous Version | Text Only | Print | Product List | Glossary On
Versions: 1 2 3 4 5 6 7 8 9 10 11 12 13 14 15 16 17 18 19 20 21 22 23
000
FTUS41 KBOX 240534
TAFORH
TAF
KORH 240534Z 2406/2506 25011G23KT 3SM BR OVC003
     FM240900 27011G21KT P6SM BKN008
     FM241000 27011G20KT P6SM BKN060
     FM241200 28010G19KT P6SM SCT200
     FM241900 30010KT P6SM BKN250
     FM250200 03004KT P6SM BKN080=

USA.gov is the U.S. government's official web portal to all federal, state and local government web resources and services.